createdAt,value
2018-06-29T00:01:00.331Z,101392.16
2018-06-29T00:03:29.170Z,101390.47
2018-06-29T00:05:57.950Z,101398.07
2018-06-29T00:08:26.860Z,101400.78
2018-06-29T00:10:56.542Z,101393.19
2018-06-29T00:13:25.569Z,101398.07
2018-06-29T00:15:54.696Z,101391.83
2018-06-29T00:18:23.888Z,101389.61
2018-06-29T00:20:52.947Z,101395.89
2018-06-29T00:23:21.980Z,101390.97
2018-06-29T00:25:51.026Z,101400.78
2018-06-29T00:28:20.144Z,101400.45
2018-06-29T00:30:49.423Z,101404.52
2018-06-29T00:33:18.408Z,101407.22
2018-06-29T00:35:47.297Z,101408.57
2018-06-29T00:38:16.316Z,101408.70
2018-06-29T00:40:45.386Z,101411.28
2018-06-29T00:43:14.327Z,101410.91
2018-06-29T00:45:43.480Z,101414.11
2018-06-29T00:48:12.475Z,101413.28
2018-06-29T00:50:41.573Z,101411.94
2018-06-29T00:53:10.718Z,101409.22
2018-06-29T00:55:40.006Z,101413.78
2018-06-29T00:58:09.101Z,101410.70
2018-06-29T01:00:38.110Z,101411.20
2018-06-29T01:03:08.119Z,101408.48
2018-06-29T01:05:37.166Z,101404.95
2018-06-29T01:08:06.401Z,101413.57
2018-06-29T01:10:35.372Z,101409.63
2018-06-29T01:13:04.525Z,101411.51
2018-06-29T01:15:33.508Z,101412.50
2018-06-29T01:18:02.563Z,101405.23
2018-06-29T01:20:31.704Z,101407.08
2018-06-29T01:23:00.829Z,101406.37
2018-06-29T01:25:29.891Z,101404.50
2018-06-29T01:27:58.933Z,101416.68
2018-06-29T01:30:27.815Z,101414.99
2018-06-29T01:32:56.897Z,101423.11
2018-06-29T01:35:26.074Z,101414.13
2018-06-29T01:37:55.138Z,101418.69
2018-06-29T01:40:24.153Z,101412.94
2018-06-29T01:42:53.010Z,101412.20
2018-06-29T01:45:21.811Z,101416.63
2018-06-29T01:47:50.825Z,101416.78
2018-06-29T01:50:19.833Z,101408.30
2018-06-29T01:52:48.725Z,101415.55
2018-06-29T01:55:17.621Z,101411.98
2018-06-29T01:57:47.012Z,101416.57
2018-06-29T02:00:16.083Z,101410.78
2018-06-29T02:02:45.221Z,101415.34
2018-06-29T02:05:14.199Z,101415.34
2018-06-29T02:07:43.156Z,101406.02
2018-06-29T02:10:12.289Z,101415.01
2018-06-29T02:12:41.392Z,101414.14
2018-06-29T02:15:10.244Z,101418.20
2018-06-29T02:17:39.261Z,101420.05
2018-06-29T02:20:08.186Z,101413.28
2018-06-29T02:22:37.205Z,101415.99
2018-06-29T02:25:06.241Z,101410.58
2018-06-29T02:27:35.342Z,101411.28
2018-06-29T02:30:04.666Z,101419.06
2018-06-29T02:32:33.722Z,101408.08
2018-06-29T02:35:02.544Z,101404.52
2018-06-29T02:37:31.489Z,101396.76
2018-06-29T02:40:00.611Z,101394.39
2018-06-29T02:42:29.893Z,101399.67
2018-06-29T02:44:58.835Z,101402.59
2018-06-29T02:47:27.985Z,101405.15
2018-06-29T02:49:57.635Z,101400.95
2018-06-29T02:52:26.785Z,101391.82
2018-06-29T02:54:55.880Z,101389.84
2018-06-29T02:57:24.666Z,101396.83
2018-06-29T02:59:53.837Z,101390.76
2018-06-29T03:02:23.023Z,101396.02
2018-06-29T03:04:52.062Z,101393.19
2018-06-29T03:07:21.958Z,101399.80
2018-06-29T03:09:51.083Z,101396.44
2018-06-29T03:12:20.180Z,101388.68
2018-06-29T03:14:49.210Z,101393.81
2018-06-29T03:17:18.224Z,101395.00
2018-06-29T03:19:47.360Z,101389.80
2018-06-29T03:22:16.498Z,101393.20
2018-06-29T03:24:45.505Z,101390.86
2018-06-29T03:27:14.561Z,101399.69
2018-06-29T03:29:43.700Z,101389.72
2018-06-29T03:32:12.640Z,101397.69
2018-06-29T03:34:41.583Z,101393.63
2018-06-29T03:37:10.660Z,101395.50
2018-06-29T03:39:39.978Z,101391.44
2018-06-29T03:42:09.064Z,101390.58
2018-06-29T03:44:38.119Z,101389.56
2018-06-29T03:47:07.266Z,101400.77
2018-06-29T03:49:36.313Z,101406.02
2018-06-29T03:52:05.311Z,101400.97
2018-06-29T03:54:34.273Z,101400.84
2018-06-29T03:57:03.267Z,101397.48
2018-06-29T03:59:32.284Z,101397.69
2018-06-29T04:02:01.340Z,101389.89
2018-06-29T04:04:30.187Z,101399.12
2018-06-29T04:06:59.266Z,101394.92
2018-06-29T04:09:28.102Z,101405.60
2018-06-29T04:11:56.960Z,101400.02
2018-06-29T04:14:26.017Z,101404.33
2018-06-29T04:16:54.994Z,101404.33
2018-06-29T04:19:24.008Z,101403.30
2018-06-29T04:21:53.079Z,101406.02
2018-06-29T04:24:21.991Z,101405.16
2018-06-29T04:26:50.871Z,101410.23
2018-06-29T04:29:19.779Z,101409.87
2018-06-29T04:31:49.419Z,101406.47
2018-06-29T04:34:18.493Z,101399.32
2018-06-29T04:36:47.711Z,101405.23
2018-06-29T04:39:16.554Z,101408.11
2018-06-29T04:41:45.585Z,101406.05
2018-06-29T04:44:14.689Z,101408.02
2018-06-29T04:46:43.737Z,101407.66
2018-06-29T04:49:12.712Z,101416.78
2018-06-29T04:51:42.312Z,101416.44
2018-06-29T04:54:11.901Z,101415.74
2018-06-29T04:56:40.897Z,101416.23
2018-06-29T04:59:09.951Z,101417.59
2018-06-29T05:01:39.094Z,101402.81
2018-06-29T05:04:08.278Z,101410.61
2018-06-29T05:06:37.220Z,101412.95
2018-06-29T05:09:08.174Z,101417.51
2018-06-29T05:11:37.536Z,101413.61
2018-06-29T05:14:06.366Z,101420.01
2018-06-29T05:16:35.365Z,101421.86
2018-06-29T05:19:04.537Z,101424.72
2018-06-29T05:21:33.729Z,101434.70
2018-06-29T05:24:02.592Z,101428.95
2018-06-29T05:26:31.824Z,101435.19
2018-06-29T05:29:00.671Z,101435.51
2018-06-29T05:31:29.985Z,101423.32
2018-06-29T05:33:59.048Z,101440.92
2018-06-29T05:36:28.325Z,101433.30
2018-06-29T05:38:57.374Z,101433.42
2018-06-29T05:41:26.276Z,101438.50
2018-06-29T05:43:55.414Z,101448.47
2018-06-29T05:46:24.236Z,101435.91
2018-06-29T05:48:53.057Z,101421.88
2018-06-29T05:51:21.981Z,101437.92
2018-06-29T05:53:50.842Z,101441.98
2018-06-29T05:56:19.990Z,101448.27
2018-06-29T05:58:49.109Z,101443.50
2018-06-29T06:01:18.290Z,101441.28
2018-06-29T06:03:47.388Z,101448.55
2018-06-29T06:06:16.327Z,101449.53
2018-06-29T06:08:45.213Z,101442.42
2018-06-29T06:11:14.167Z,101455.97
2018-06-29T06:13:43.097Z,101455.11
2018-06-29T06:16:11.918Z,101456.95
2018-06-29T06:18:41.236Z,101459.66
2018-06-29T06:21:10.017Z,101457.11
2018-06-29T06:23:38.845Z,101460.31
2018-06-29T06:26:07.776Z,101464.00
2018-06-29T06:28:36.594Z,101457.88
2018-06-29T06:31:05.392Z,101467.73
2018-06-29T06:33:34.176Z,101466.66
2018-06-29T06:36:03.173Z,101466.28
2018-06-29T06:38:31.970Z,101470.01
2018-06-29T06:41:00.737Z,101462.88
2018-06-29T06:43:29.623Z,101468.78
2018-06-29T06:45:58.642Z,101465.86
2018-06-29T06:48:27.401Z,101474.84
2018-06-29T06:50:56.162Z,101471.27
2018-06-29T06:53:25.210Z,101473.98
2018-06-29T06:55:54.328Z,101475.83
2018-06-29T06:58:23.310Z,101475.49
2018-06-29T07:00:52.095Z,101484.47
2018-06-29T07:03:21.341Z,101479.55
2018-06-29T07:05:50.385Z,101490.87
2018-06-29T07:08:19.387Z,101490.87
2018-06-29T07:10:48.467Z,101504.91
2018-06-29T07:13:17.509Z,101488.16
2018-06-29T07:15:46.716Z,101489.03
2018-06-29T07:18:15.809Z,101490.87
2018-06-29T07:20:44.860Z,101500.72
2018-06-29T07:23:13.810Z,101492.59
2018-06-29T07:25:42.898Z,101491.24
2018-06-29T07:28:11.891Z,101492.59
2018-06-29T07:30:40.887Z,101499.21
2018-06-29T07:33:09.755Z,101483.83
2018-06-29T07:35:38.726Z,101493.30
2018-06-29T07:38:07.676Z,101489.58
2018-06-29T07:40:36.671Z,101491.67
2018-06-29T07:43:05.714Z,101493.86
2018-06-29T07:45:34.799Z,101495.95
2018-06-29T07:48:03.841Z,101498.16
2018-06-29T07:50:32.795Z,101490.38
2018-06-29T07:53:02.500Z,101500.56
2018-06-29T07:55:31.538Z,101503.14
2018-06-29T07:58:00.732Z,101508.90
2018-06-29T08:00:29.689Z,101505.58
2018-06-29T08:02:58.937Z,101513.17
2018-06-29T08:05:27.849Z,101507.27
2018-06-29T08:07:56.978Z,101504.93
2018-06-29T08:10:25.961Z,101509.48
2018-06-29T08:12:55.015Z,101518.96
2018-06-29T08:15:24.036Z,101518.47
2018-06-29T08:17:53.106Z,101522.16
2018-06-29T08:20:22.100Z,101515.77
2018-06-29T08:22:51.038Z,101524.75
2018-06-29T08:25:20.146Z,101520.16
2018-06-29T08:27:49.186Z,101522.87
2018-06-29T08:30:18.219Z,101534.56
2018-06-29T08:32:47.326Z,101533.58
2018-06-29T08:35:16.357Z,101538.50
2018-06-29T08:37:45.386Z,101529.86
2018-06-29T08:40:14.396Z,101530.02
2018-06-29T08:42:43.502Z,101534.94
2018-06-29T08:45:12.537Z,101537.27
2018-06-29T08:47:41.686Z,101526.44
2018-06-29T08:50:10.840Z,101528.66
2018-06-29T08:52:39.738Z,101534.07
2018-06-29T08:55:08.996Z,101537.64
2018-06-29T08:57:38.069Z,101536.29
2018-06-29T09:00:08.054Z,101539.86
2018-06-29T09:02:37.134Z,101533.58
2018-06-29T09:05:06.762Z,101540.35
2018-06-29T09:07:36.100Z,101534.94
2018-06-29T09:10:05.459Z,101541.22
2018-06-29T09:12:34.513Z,101532.23
2018-06-29T09:15:03.576Z,101539.98
2018-06-29T09:17:32.782Z,101538.63
2018-06-29T09:20:01.745Z,101538.13
2018-06-29T09:22:30.792Z,101546.41
2018-06-29T09:24:59.809Z,101540.47
2018-06-29T09:27:28.887Z,101547.89
2018-06-29T09:29:57.878Z,101550.60
2018-06-29T09:32:26.666Z,101555.16
2018-06-29T09:34:55.560Z,101545.34
2018-06-29T09:37:24.456Z,101540.91
2018-06-29T09:39:53.496Z,101554.45
2018-06-29T09:42:22.495Z,101545.98
2018-06-29T09:44:51.436Z,101551.89
2018-06-29T09:47:20.674Z,101554.11
2018-06-29T09:49:49.691Z,101564.08
2018-06-29T09:52:18.717Z,101546.97
2018-06-29T09:54:47.776Z,101544.27
2018-06-29T09:57:16.682Z,101541.06
2018-06-29T09:59:45.717Z,101545.13
2018-06-29T10:02:14.715Z,101555.47
2018-06-29T10:04:43.709Z,101554.94
2018-06-29T10:07:12.851Z,101542.26
2018-06-29T10:09:41.836Z,101540.91
2018-06-29T10:12:10.849Z,101540.91
2018-06-29T10:14:39.965Z,101539.55
2018-06-29T10:17:09.153Z,101552.60
2018-06-29T10:19:38.091Z,101560.23
2018-06-29T10:22:07.115Z,101562.58
2018-06-29T10:24:36.323Z,101546.33
2018-06-29T10:27:05.591Z,101548.17
2018-06-29T10:29:34.573Z,101553.95
2018-06-29T10:32:03.809Z,101555.31
2018-06-29T10:34:32.959Z,101556.82
2018-06-29T10:37:02.054Z,101550.05
2018-06-29T10:39:31.164Z,101543.28
2018-06-29T10:42:00.250Z,101559.65
2018-06-29T10:44:29.341Z,101560.51
2018-06-29T10:46:58.279Z,101556.45
2018-06-29T10:49:27.410Z,101548.97
2018-06-29T10:51:56.489Z,101544.53
2018-06-29T10:54:25.617Z,101540.48
2018-06-29T10:56:54.621Z,101560.94
2018-06-29T10:59:23.811Z,101552.45
2018-06-29T11:01:52.798Z,101547.19
2018-06-29T11:04:22.020Z,101549.37
2018-06-29T11:06:51.070Z,101551.73
2018-06-29T11:09:20.162Z,101559.86
2018-06-29T11:11:49.197Z,101556.78
2018-06-29T11:14:18.357Z,101547.46
2018-06-29T11:16:47.397Z,101553.37
2018-06-29T11:19:16.518Z,101557.58
2018-06-29T11:21:45.483Z,101557.58
2018-06-29T11:24:14.363Z,101560.78
2018-06-29T11:26:43.517Z,101550.07
2018-06-29T11:29:12.710Z,101561.77
2018-06-29T11:31:41.755Z,101563.61
2018-06-29T11:34:10.817Z,101563.27
2018-06-29T11:36:40.044Z,101576.81
2018-06-29T11:39:11.769Z,101576.44
2018-06-29T11:41:40.955Z,101574.74
2018-06-29T11:44:10.058Z,101569.33
2018-06-29T11:46:39.705Z,101567.61
2018-06-29T11:49:08.965Z,101563.55
2018-06-29T11:51:39.032Z,101570.31
2018-06-29T11:54:08.616Z,101575.84
2018-06-29T11:56:37.488Z,101576.71
2018-06-29T11:59:06.485Z,101578.06
2018-06-29T12:01:35.366Z,101558.25
2018-06-29T12:04:04.623Z,101560.95
2018-06-29T12:06:33.549Z,101562.84
2018-06-29T12:09:02.495Z,101565.54
2018-06-29T12:11:31.404Z,101563.66
2018-06-29T12:14:00.573Z,101562.31
2018-06-29T12:16:29.494Z,101554.71
2018-06-29T12:18:58.561Z,101549.79
2018-06-29T12:21:27.502Z,101556.06
2018-06-29T12:23:56.588Z,101560.13
2018-06-29T12:26:25.786Z,101566.80
2018-06-29T12:28:54.967Z,101575.51
2018-06-29T12:31:23.913Z,101566.89
2018-06-29T12:33:53.048Z,101565.54
2018-06-29T12:36:22.086Z,101574.16
2018-06-29T12:38:51.242Z,101565.02
2018-06-29T12:41:20.418Z,101570.58
2018-06-29T12:43:49.821Z,101577.35
2018-06-29T12:46:18.857Z,101560.25
2018-06-29T12:48:48.141Z,101562.47
2018-06-29T12:51:17.157Z,101553.84
2018-06-29T12:53:46.284Z,101577.72
2018-06-29T12:56:15.784Z,101568.38
2018-06-29T12:58:45.053Z,101578.22
2018-06-29T13:01:14.090Z,101575.02
2018-06-29T13:03:43.180Z,101567.88
2018-06-29T13:06:12.336Z,101592.61
2018-06-29T13:08:41.385Z,101587.81
2018-06-29T13:11:10.583Z,101580.55
2018-06-29T13:13:39.798Z,101583.75
2018-06-29T13:16:08.930Z,101576.64
2018-06-29T13:18:37.836Z,101574.92
2018-06-29T13:21:07.125Z,101573.94
2018-06-29T13:23:36.228Z,101583.04
2018-06-29T13:26:05.405Z,101586.61
2018-06-29T13:28:34.564Z,101589.47
2018-06-29T13:31:03.841Z,101586.77
2018-06-29T13:33:33.022Z,101586.77
2018-06-29T13:36:02.518Z,101576.55
2018-06-29T13:38:32.005Z,101576.92
2018-06-29T13:41:00.972Z,101582.82
2018-06-29T13:43:30.048Z,101587.75
2018-06-29T13:45:59.048Z,101604.97
2018-06-29T13:48:27.910Z,101591.95
2018-06-29T13:50:56.998Z,101594.75
2018-06-29T13:53:25.858Z,101596.02
2018-06-29T13:55:54.985Z,101590.69
2018-06-29T13:58:24.093Z,101588.47
2018-06-29T14:00:53.127Z,101580.88
2018-06-29T14:03:22.087Z,101589.48
2018-06-29T14:05:51.137Z,101596.74
2018-06-29T14:08:20.247Z,101595.02
2018-06-29T14:10:49.275Z,101592.69
2018-06-29T14:13:18.367Z,101592.31
2018-06-29T14:15:47.322Z,101597.73
2018-06-29T14:18:16.318Z,101600.80
2018-06-29T14:20:45.399Z,101603.14
2018-06-29T14:23:14.549Z,101590.95
2018-06-29T14:25:43.442Z,101583.75
2018-06-29T14:28:12.538Z,101590.13
2018-06-29T14:30:41.679Z,101584.56
2018-06-29T14:33:10.781Z,101586.06
2018-06-29T14:35:39.914Z,101584.56
2018-06-29T14:38:08.907Z,101572.02
2018-06-29T14:40:38.144Z,101585.91
2018-06-29T14:43:07.147Z,101587.77
2018-06-29T14:45:36.310Z,101580.99
2018-06-29T14:48:05.394Z,101581.48
2018-06-29T14:50:34.266Z,101586.41
2018-06-29T14:53:03.445Z,101589.48
2018-06-29T14:55:32.415Z,101596.25
2018-06-29T14:58:01.646Z,101598.09
2018-06-29T15:00:30.450Z,101594.04
2018-06-29T15:02:59.512Z,101595.39
2018-06-29T15:05:28.543Z,101585.91
2018-06-29T15:07:57.719Z,101591.33
2018-06-29T15:10:26.870Z,101600.44
2018-06-29T15:12:55.996Z,101597.23
2018-06-29T15:15:24.946Z,101598.25
2018-06-29T15:17:54.632Z,101595.02
2018-06-29T15:20:23.610Z,101599.08
2018-06-29T15:22:52.757Z,101594.19
2018-06-29T15:25:21.928Z,101592.84
2018-06-29T15:27:50.952Z,101593.33
2018-06-29T15:30:19.957Z,101585.70
2018-06-29T15:32:48.925Z,101592.95
2018-06-29T15:35:17.982Z,101583.48
2018-06-29T15:37:47.031Z,101594.31
2018-06-29T15:40:15.977Z,101591.23
2018-06-29T15:42:45.101Z,101584.12
2018-06-29T15:45:14.122Z,101592.23
2018-06-29T15:47:43.061Z,101592.73
2018-06-29T15:50:12.207Z,101593.71
2018-06-29T15:52:41.306Z,101601.00
2018-06-29T15:55:10.454Z,101598.30
2018-06-29T15:57:39.394Z,101597.06
2018-06-29T16:00:10.003Z,101606.53
2018-06-29T16:02:39.395Z,101603.83
2018-06-29T16:05:08.413Z,101600.26
2018-06-29T16:07:37.577Z,101599.92
2018-06-29T16:10:06.632Z,101604.47
2018-06-29T16:12:35.851Z,101609.88
2018-06-29T16:15:05.016Z,101614.80
2018-06-29T16:17:34.008Z,101610.86
2018-06-29T16:20:02.978Z,101611.39
2018-06-29T16:22:32.116Z,101608.68
2018-06-29T16:25:01.131Z,101614.58
2018-06-29T16:27:30.240Z,101616.05
2018-06-29T16:29:59.193Z,101617.78
2018-06-29T16:32:28.134Z,101615.71
2018-06-29T16:34:57.289Z,101619.28
2018-06-29T16:37:26.749Z,101622.48
2018-06-29T16:39:56.015Z,101626.53
2018-06-29T16:42:25.125Z,101629.58
2018-06-29T16:44:54.179Z,101626.53
2018-06-29T16:47:23.370Z,101626.53
2018-06-29T16:49:52.485Z,101628.38
2018-06-29T16:52:21.735Z,101622.48
2018-06-29T16:54:50.929Z,101623.83
2018-06-29T16:57:20.067Z,101629.58
2018-06-29T16:59:49.315Z,101628.88
2018-06-29T17:02:18.418Z,101627.52
2018-06-29T17:04:47.485Z,101632.44
2018-06-29T17:07:16.584Z,101633.80
2018-06-29T17:09:45.753Z,101635.63
2018-06-29T17:12:15.126Z,101632.06
2018-06-29T17:14:44.157Z,101633.30
2018-06-29T17:17:13.135Z,101627.52
2018-06-29T17:19:42.441Z,101632.06
2018-06-29T17:22:11.336Z,101631.09
2018-06-29T17:24:40.230Z,101628.16
2018-06-29T17:27:09.162Z,101632.59
2018-06-29T17:29:38.271Z,101634.28
2018-06-29T17:32:07.258Z,101626.31
2018-06-29T17:34:36.271Z,101628.65
2018-06-29T17:37:06.187Z,101628.16
2018-06-29T17:39:35.261Z,101627.78
2018-06-29T17:42:04.416Z,101632.22
2018-06-29T17:44:33.461Z,101623.73
2018-06-29T17:47:02.574Z,101625.72
2018-06-29T17:49:31.497Z,101629.28
2018-06-29T17:52:00.498Z,101635.56
2018-06-29T17:54:29.649Z,101639.25
2018-06-29T17:56:58.973Z,101641.95
2018-06-29T17:59:28.045Z,101639.39
2018-06-29T18:01:57.274Z,101638.53
2018-06-29T18:04:26.479Z,101643.94
2018-06-29T18:06:55.632Z,101652.55
2018-06-29T18:10:53.870Z,101654.39
2018-06-29T18:13:23.143Z,101659.73
2018-06-29T18:15:52.130Z,101663.07
2018-06-29T18:18:21.088Z,101661.72
2018-06-29T18:20:49.854Z,101663.19
2018-06-29T18:23:18.716Z,101662.70
2018-06-29T18:25:47.601Z,101660.48
2018-06-29T18:28:16.438Z,101665.03
2018-06-29T18:30:45.302Z,101663.33
2018-06-29T18:33:17.636Z,101667.39
2018-06-29T18:35:47.969Z,101667.02
2018-06-29T18:38:17.158Z,101671.08
2018-06-29T18:40:46.319Z,101670.21
2018-06-29T18:43:15.343Z,101667.99
2018-06-29T18:45:44.498Z,101670.70
2018-06-29T18:48:13.682Z,101670.36
2018-06-29T18:50:42.835Z,101673.06
2018-06-29T18:53:11.865Z,101674.91
2018-06-29T18:55:40.791Z,101669.98
2018-06-29T18:58:10.613Z,101671.83
2018-06-29T19:00:39.935Z,101677.76
2018-06-29T19:03:09.107Z,101680.09
2018-06-29T19:05:38.197Z,101677.23
2018-06-29T19:08:07.356Z,101679.11
2018-06-29T19:10:36.586Z,101677.76
2018-06-29T19:13:06.080Z,101680.47
2018-06-29T19:15:35.211Z,101684.52
2018-06-29T19:18:04.425Z,101681.44
2018-06-29T19:20:33.229Z,101689.56
2018-06-29T19:23:02.318Z,101681.44
2018-06-29T19:25:31.558Z,101684.15
2018-06-29T19:28:00.648Z,101684.15
2018-06-29T19:30:30.157Z,101688.70
2018-06-29T19:32:59.100Z,101692.27
2018-06-29T19:35:28.311Z,101694.97
2018-06-29T19:37:57.376Z,101691.06
2018-06-29T19:40:26.523Z,101693.77
2018-06-29T19:42:55.601Z,101701.36
2018-06-29T19:45:24.750Z,101696.47
2018-06-29T19:47:53.872Z,101699.66
2018-06-29T19:50:23.089Z,101700.52
2018-06-29T19:52:52.353Z,101701.50
2018-06-29T19:55:21.731Z,101702.85
2018-06-29T19:57:50.776Z,101708.75
2018-06-29T20:00:19.915Z,101715.03
2018-06-29T20:02:48.969Z,101710.59
2018-06-29T20:05:18.150Z,101704.70
2018-06-29T20:07:47.350Z,101707.55
2018-06-29T20:10:16.370Z,101706.69
2018-06-29T20:12:45.553Z,101703.60
2018-06-29T20:15:15.678Z,101711.72
2018-06-29T20:17:44.817Z,101704.61
2018-06-29T20:20:14.041Z,101710.89
2018-06-29T20:22:43.315Z,101701.53
2018-06-29T20:25:12.507Z,101704.23
2018-06-29T20:27:41.449Z,101707.43
2018-06-29T20:30:10.638Z,101706.59
2018-06-29T20:32:39.774Z,101708.93
2018-06-29T20:35:09.037Z,101712.50
2018-06-29T20:37:38.259Z,101712.27
2018-06-29T20:40:07.515Z,101710.05
2018-06-29T20:42:36.739Z,101713.62
2018-06-29T20:45:06.009Z,101710.54
2018-06-29T20:47:35.204Z,101706.11
2018-06-29T20:50:04.344Z,101711.17
2018-06-29T20:52:33.623Z,101710.31
2018-06-29T20:55:02.740Z,101718.91
2018-06-29T20:57:31.734Z,101721.27
2018-06-29T21:00:00.971Z,101719.40
2018-06-29T21:02:30.017Z,101716.84
2018-06-29T21:04:59.082Z,101722.25
2018-06-29T21:07:28.147Z,101715.97
2018-06-29T21:09:57.224Z,101720.52
2018-06-29T21:12:26.313Z,101718.41
2018-06-29T21:14:55.477Z,101721.53
2018-06-29T21:17:24.667Z,101726.04
2018-06-29T21:19:53.804Z,101730.58
2018-06-29T21:22:22.915Z,101734.16
2018-06-29T21:24:51.790Z,101729.38
2018-06-29T21:27:20.784Z,101735.65
2018-06-29T21:29:49.843Z,101735.65
2018-06-29T21:32:19.084Z,101737.00
2018-06-29T21:34:48.185Z,101740.19
2018-06-29T21:37:17.402Z,101737.48
2018-06-29T21:39:46.636Z,101737.00
2018-06-29T21:42:15.800Z,101734.78
2018-06-29T21:44:45.009Z,101743.77
2018-06-29T21:47:14.206Z,101744.25
2018-06-29T21:49:43.520Z,101743.39
2018-06-29T21:52:12.593Z,101747.44
2018-06-29T21:54:41.793Z,101747.44
2018-06-29T21:57:10.979Z,101750.63
2018-06-29T21:59:40.232Z,101746.58
2018-06-29T22:02:09.171Z,101751.13
2018-06-29T22:04:38.393Z,101756.05
2018-06-29T22:07:07.552Z,101750.63
2018-06-29T22:09:36.760Z,101756.05
2018-06-29T22:12:06.080Z,101757.05
2018-06-29T22:14:36.051Z,101749.28
2018-06-29T22:17:05.448Z,101751.64
2018-06-29T22:19:34.776Z,101751.64
2018-06-29T22:22:03.798Z,101752.47
2018-06-29T22:24:32.736Z,101750.29
2018-06-29T22:27:02.088Z,101755.32
2018-06-29T22:29:31.194Z,101754.45
2018-06-29T22:32:00.365Z,101753.59
2018-06-29T22:34:29.357Z,101754.45
2018-06-29T22:36:58.449Z,101757.65
2018-06-29T22:39:27.641Z,101754.22
2018-06-29T22:41:56.734Z,101760.49
2018-06-29T22:44:25.886Z,101760.12
2018-06-29T22:46:54.944Z,101757.91
2018-06-29T22:49:24.118Z,101760.27
2018-06-29T22:51:53.258Z,101760.75
2018-06-29T22:54:22.288Z,101762.97
2018-06-29T22:56:51.614Z,101767.12
2018-06-29T22:59:20.659Z,101769.00
2018-06-29T23:01:49.887Z,101767.65
2018-06-29T23:04:18.687Z,101767.27
2018-06-29T23:06:47.601Z,101763.70
2018-06-29T23:09:17.614Z,101763.36
2018-06-29T23:11:46.740Z,101765.69
2018-06-29T23:14:15.891Z,101767.52
2018-06-29T23:16:45.126Z,101760.42
2018-06-29T23:19:14.115Z,101772.06
2018-06-29T23:21:43.113Z,101767.19
2018-06-29T23:24:12.061Z,101767.29
2018-06-29T23:26:41.181Z,101769.50
2018-06-29T23:29:10.102Z,101765.56
2018-06-29T23:31:39.168Z,101767.77
2018-06-29T23:34:08.352Z,101767.92
2018-06-29T23:36:37.543Z,101765.22
2018-06-29T23:39:08.460Z,101766.91
2018-06-29T23:41:37.824Z,101764.84
2018-06-29T23:44:06.728Z,101762.86
2018-06-29T23:46:36.187Z,101760.30
2018-06-29T23:49:05.458Z,101763.86
2018-06-29T23:51:34.570Z,101767.92
2018-06-29T23:54:03.798Z,101770.14
2018-06-29T23:56:33.041Z,101771.98
2018-06-29T23:59:02.128Z,101755.28
